createdAt,value
2018-11-23T00:00:33.902Z,-6.80
2018-11-23T00:03:00.670Z,-6.90
2018-11-23T00:05:27.349Z,-7.00
2018-11-23T00:07:54.056Z,-7.00
2018-11-23T00:10:21.525Z,-7.10
2018-11-23T00:12:48.975Z,-7.00
2018-11-23T00:15:18.660Z,-7.00
2018-11-23T00:17:45.558Z,-7.00
2018-11-23T00:20:12.303Z,-7.00
2018-11-23T00:22:38.986Z,-7.00
2018-11-23T00:25:05.774Z,-7.00
2018-11-23T00:27:33.200Z,-7.10
2018-11-23T00:29:59.861Z,-7.20
2018-11-23T00:32:27.688Z,-7.10
2018-11-23T00:34:55.038Z,-7.20
2018-11-23T00:37:21.796Z,-7.10
2018-11-23T00:39:53.175Z,-7.10
2018-11-23T00:42:20.893Z,-7.20
2018-11-23T00:44:48.673Z,-7.30
2018-11-23T00:47:16.748Z,-7.20
2018-11-23T00:49:43.452Z,-7.20
2018-11-23T00:52:10.170Z,-7.30
2018-11-23T00:54:37.647Z,-7.40
2018-11-23T00:57:04.712Z,-7.40
2018-11-23T00:59:40.935Z,-7.30
2018-11-23T01:02:07.917Z,-7.30
2018-11-23T01:04:35.285Z,-7.30
2018-11-23T01:07:02.880Z,-7.50
2018-11-23T01:09:30.407Z,-7.40
2018-11-23T01:11:57.100Z,-7.50
2018-11-23T01:14:24.490Z,-7.50
2018-11-23T01:16:51.845Z,-7.50
2018-11-23T01:19:19.230Z,-7.40
2018-11-23T01:21:46.370Z,-7.20
2018-11-23T01:24:14.564Z,-7.20
2018-11-23T01:26:42.329Z,-7.20
2018-11-23T01:29:09.810Z,-7.00
2018-11-23T01:31:37.230Z,-6.90
2018-11-23T01:34:06.601Z,-6.90
2018-11-23T01:36:33.433Z,-6.90
2018-11-23T01:39:00.122Z,-6.70
2018-11-23T01:41:27.303Z,-6.70
2018-11-23T01:43:54.915Z,-6.60
2018-11-23T01:46:23.029Z,-6.60
2018-11-23T01:48:50.301Z,-6.60
2018-11-23T01:51:17.969Z,-6.60
2018-11-23T01:53:44.642Z,-6.40
2018-11-23T01:56:12.058Z,-6.40
2018-11-23T01:58:38.951Z,-6.40
2018-11-23T02:01:06.582Z,-6.20
2018-11-23T02:03:34.240Z,-6.20
2018-11-23T02:06:01.712Z,-6.00
2018-11-23T02:08:28.470Z,-6.00
2018-11-23T02:10:55.612Z,-5.90
2018-11-23T02:13:23.421Z,-5.90
2018-11-23T02:15:50.118Z,-5.90
2018-11-23T02:18:18.618Z,-5.80
2018-11-23T02:20:45.788Z,-5.80
2018-11-23T02:23:13.355Z,-5.60
2018-11-23T02:25:40.099Z,-5.60
2018-11-23T02:28:09.637Z,-5.50
2018-11-23T02:30:36.510Z,-5.60
2018-11-23T02:33:04.537Z,-5.40
2018-11-23T02:35:31.514Z,-5.40
2018-11-23T02:37:58.244Z,-5.30
2018-11-23T02:40:24.935Z,-5.20
2018-11-23T02:42:53.010Z,-5.10
2018-11-23T02:45:19.915Z,-5.10
2018-11-23T02:47:48.031Z,-5.00
2018-11-23T02:50:15.312Z,-5.10
2018-11-23T02:52:42.127Z,-4.90
2018-11-23T02:55:08.827Z,-4.90
2018-11-23T02:57:35.764Z,-4.90
2018-11-23T03:00:03.639Z,-4.80
2018-11-23T03:02:31.257Z,-4.80
2018-11-23T03:04:58.252Z,-4.80
2018-11-23T03:07:25.562Z,-4.70
2018-11-23T03:09:52.305Z,-4.70
2018-11-23T03:12:19.466Z,-4.70
2018-11-23T03:14:46.535Z,-4.70
2018-11-23T03:17:14.161Z,-4.80
2018-11-23T03:19:41.814Z,-4.70
2018-11-23T03:22:08.910Z,-4.70
2018-11-23T03:24:35.705Z,-4.80
2018-11-23T03:27:02.376Z,-4.80
2018-11-23T03:29:29.082Z,-4.80
2018-11-23T03:31:56.496Z,-4.70
2018-11-23T03:34:24.289Z,-4.60
2018-11-23T03:36:51.137Z,-4.60
2018-11-23T03:39:17.849Z,-4.60
2018-11-23T03:41:44.786Z,-4.50
2018-11-23T03:44:13.489Z,-4.50
2018-11-23T03:46:41.075Z,-4.50
2018-11-23T03:49:07.744Z,-4.50
2018-11-23T03:51:34.924Z,-4.40
2018-11-23T03:54:01.637Z,-4.40
2018-11-23T03:56:28.893Z,-4.40
2018-11-23T03:58:56.255Z,-4.30
2018-11-23T04:01:24.274Z,-4.40
2018-11-23T04:03:52.010Z,-4.20
2018-11-23T04:06:19.527Z,-4.20
2018-11-23T04:08:49.620Z,-4.20
2018-11-23T04:11:16.697Z,-4.10
2018-11-23T04:13:44.241Z,-4.10
2018-11-23T04:16:11.035Z,-4.10
2018-11-23T04:18:39.378Z,-4.20
2018-11-23T04:21:06.840Z,-4.10
2018-11-23T04:23:35.268Z,-4.10
2018-11-23T04:26:02.079Z,-4.10
2018-11-23T04:28:29.420Z,-4.10
2018-11-23T04:30:57.297Z,-4.00
2018-11-23T04:33:24.407Z,-4.10
2018-11-23T04:35:51.643Z,-4.20
2018-11-23T04:38:18.914Z,-4.10
2018-11-23T04:40:46.208Z,-4.00
2018-11-23T04:43:14.278Z,-3.90
2018-11-23T04:45:42.031Z,-4.00
2018-11-23T04:48:09.933Z,-3.90
2018-11-23T04:50:38.109Z,-3.90
2018-11-23T04:53:06.099Z,-3.90
2018-11-23T04:55:33.288Z,-3.90
2018-11-23T04:57:59.996Z,-3.90
2018-11-23T05:00:26.811Z,-4.00
2018-11-23T05:02:54.486Z,-3.90
2018-11-23T05:05:22.454Z,-3.90
2018-11-23T05:07:50.551Z,-3.90
2018-11-23T05:10:19.512Z,-3.80
2018-11-23T05:12:46.331Z,-3.90
2018-11-23T05:15:13.836Z,-3.90
2018-11-23T05:17:41.173Z,-3.90
2018-11-23T05:20:07.981Z,-3.80
2018-11-23T05:22:34.725Z,-3.80
2018-11-23T05:25:01.772Z,-3.80
2018-11-23T05:27:28.503Z,-3.80
2018-11-23T05:29:55.234Z,-3.70
2018-11-23T05:32:21.928Z,-3.70
2018-11-23T05:34:48.636Z,-3.70
2018-11-23T05:37:16.101Z,-3.70
2018-11-23T05:39:43.509Z,-3.70
2018-11-23T05:42:10.262Z,-3.70
2018-11-23T05:44:37.071Z,-3.80
2018-11-23T05:47:04.410Z,-3.80
2018-11-23T05:49:31.544Z,-3.80
2018-11-23T05:51:58.304Z,-3.80
2018-11-23T05:54:25.039Z,-3.80
2018-11-23T05:56:51.761Z,-3.80
2018-11-23T05:59:18.429Z,-3.70
2018-11-23T06:01:45.813Z,-3.70
2018-11-23T06:04:13.602Z,-3.70
2018-11-23T06:06:42.445Z,-3.70
2018-11-23T06:09:07.839Z,-3.60
2018-11-23T06:11:35.261Z,-3.70
2018-11-23T06:14:01.987Z,-3.80
2018-11-23T06:16:28.766Z,-3.70
2018-11-23T06:18:56.174Z,-3.70
2018-11-23T06:21:22.863Z,-3.70
2018-11-23T06:23:50.495Z,-3.70
2018-11-23T06:26:17.391Z,-3.70
2018-11-23T06:28:45.138Z,-3.70
2018-11-23T06:31:12.951Z,-3.70
2018-11-23T06:33:39.702Z,-3.70
2018-11-23T06:36:06.511Z,-3.70
2018-11-23T06:38:33.364Z,-3.70
2018-11-23T06:41:00.261Z,-3.70
2018-11-23T06:43:26.905Z,-3.80
2018-11-23T06:45:54.361Z,-3.70
2018-11-23T06:48:21.819Z,-3.60
2018-11-23T06:50:49.229Z,-3.60
2018-11-23T06:53:15.865Z,-3.70
2018-11-23T06:55:42.680Z,-3.60
2018-11-23T06:58:09.339Z,-3.60
2018-11-23T07:00:36.047Z,-3.70
2018-11-23T07:03:03.589Z,-3.50
2018-11-23T07:05:30.308Z,-3.60
2018-11-23T07:07:57.004Z,-3.50
2018-11-23T07:10:23.756Z,-3.40
2018-11-23T07:12:50.488Z,-3.60
2018-11-23T07:15:17.257Z,-3.50
2018-11-23T07:17:44.010Z,-3.70
2018-11-23T07:20:10.701Z,-3.70
2018-11-23T07:22:37.388Z,-3.60
2018-11-23T07:25:04.126Z,-3.50
2018-11-23T07:27:30.923Z,-3.60
2018-11-23T07:29:57.576Z,-3.70
2018-11-23T07:32:24.315Z,-3.70
2018-11-23T07:34:51.051Z,-3.70
2018-11-23T07:37:17.715Z,-3.80
2018-11-23T07:39:56.705Z,-3.90
2018-11-23T07:42:23.383Z,-3.90
2018-11-23T07:44:50.029Z,-4.00
2018-11-23T07:47:16.716Z,-3.90
2018-11-23T07:49:43.404Z,-3.90
2018-11-23T07:52:10.205Z,-3.90
2018-11-23T07:54:36.839Z,-3.90
2018-11-23T07:57:03.575Z,-3.80
2018-11-23T07:59:30.289Z,-3.80
2018-11-23T08:01:56.996Z,-3.70
2018-11-23T08:04:23.644Z,-3.60
2018-11-23T08:06:50.355Z,-3.70
2018-11-23T08:09:17.005Z,-3.90
2018-11-23T08:11:43.666Z,-3.90
2018-11-23T08:14:11.158Z,-3.90
2018-11-23T08:16:37.819Z,-4.00
2018-11-23T08:19:04.495Z,-3.90
2018-11-23T08:21:31.283Z,-3.90
2018-11-23T08:23:58.684Z,-3.90
2018-11-23T08:26:25.422Z,-3.90
2018-11-23T08:28:52.077Z,-4.00
2018-11-23T08:31:18.752Z,-3.90
2018-11-23T08:33:46.199Z,-3.80
2018-11-23T08:36:12.996Z,-3.80
2018-11-23T08:38:39.653Z,-3.80
2018-11-23T08:41:06.357Z,-3.90
2018-11-23T08:43:33.026Z,-3.90
2018-11-23T08:45:59.709Z,-3.70
2018-11-23T08:48:27.191Z,-3.80
2018-11-23T08:50:53.937Z,-3.80
2018-11-23T08:53:27.737Z,-3.80
2018-11-23T08:55:47.388Z,-4.00
2018-11-23T08:58:14.848Z,-3.90
2018-11-23T09:00:41.501Z,-3.90
2018-11-23T09:03:08.171Z,-3.80
2018-11-23T09:05:34.899Z,-3.70
2018-11-23T09:08:02.420Z,-3.70
2018-11-23T09:10:30.001Z,-3.70
2018-11-23T09:12:56.857Z,-3.70
2018-11-23T09:15:23.701Z,-3.70
2018-11-23T09:17:51.145Z,-3.70
2018-11-23T09:20:18.004Z,-3.60
2018-11-23T09:22:44.772Z,-3.70
2018-11-23T09:25:11.595Z,-3.60
2018-11-23T09:27:38.461Z,-3.70
2018-11-23T09:30:05.317Z,-3.70
2018-11-23T09:32:32.066Z,-3.50
2018-11-23T09:34:59.584Z,-3.50
2018-11-23T09:37:26.401Z,-3.50
2018-11-23T09:39:53.145Z,-3.50
2018-11-23T09:42:19.907Z,-3.50
2018-11-23T09:44:46.742Z,-3.50
2018-11-23T09:47:13.499Z,-3.50
2018-11-23T09:49:41.038Z,-3.50
2018-11-23T09:52:07.833Z,-3.50
2018-11-23T09:54:34.581Z,-3.40
2018-11-23T09:57:02.144Z,-3.30
2018-11-23T09:59:29.791Z,-3.40
2018-11-23T10:01:57.344Z,-3.40
2018-11-23T10:04:23.461Z,-3.40
2018-11-23T10:06:50.315Z,-3.40
2018-11-23T10:09:17.084Z,-3.40
2018-11-23T10:11:43.842Z,-3.30
2018-11-23T10:14:10.652Z,-3.20
2018-11-23T10:16:37.476Z,-3.20
2018-11-23T10:19:04.301Z,-3.10
2018-11-23T10:21:31.232Z,-3.20
2018-11-23T10:23:57.989Z,-3.20
2018-11-23T10:26:24.745Z,-3.20
2018-11-23T10:28:51.593Z,-3.20
2018-11-23T10:31:19.101Z,-3.00
2018-11-23T10:33:45.853Z,-3.10
2018-11-23T10:36:12.825Z,-3.10
2018-11-23T10:38:39.596Z,-3.00
2018-11-23T10:41:07.133Z,-2.90
2018-11-23T10:43:34.750Z,-3.00
2018-11-23T10:46:01.611Z,-3.00
2018-11-23T10:48:28.404Z,-3.00
2018-11-23T10:50:55.943Z,-3.00
2018-11-23T10:53:23.480Z,-3.10
2018-11-23T10:55:50.287Z,-3.10
2018-11-23T10:58:17.053Z,-3.10
2018-11-23T11:00:43.881Z,-3.20
2018-11-23T11:03:10.776Z,-3.10
2018-11-23T11:05:37.611Z,-3.10
2018-11-23T11:08:04.418Z,-3.10
2018-11-23T11:10:31.249Z,-3.10
2018-11-23T11:12:58.064Z,-3.10
2018-11-23T11:15:25.628Z,-3.00
2018-11-23T11:17:52.452Z,-3.00
2018-11-23T11:20:20.016Z,-2.70
2018-11-23T11:22:47.565Z,-2.90
2018-11-23T11:25:14.329Z,-3.00
2018-11-23T11:27:41.096Z,-2.90
2018-11-23T11:30:07.973Z,-3.10
2018-11-23T11:32:34.775Z,-3.00
2018-11-23T11:35:01.587Z,-2.90
2018-11-23T11:37:28.464Z,-3.00
2018-11-23T11:39:55.229Z,-3.00
2018-11-23T11:42:22.005Z,-3.10
2018-11-23T11:44:49.575Z,-3.20
2018-11-23T11:47:17.052Z,-3.00
2018-11-23T11:49:43.821Z,-3.10
2018-11-23T11:52:10.710Z,-3.10
2018-11-23T11:54:38.213Z,-3.00
2018-11-23T11:57:04.992Z,-3.00
2018-11-23T11:59:37.093Z,-3.10
2018-11-23T12:02:06.680Z,-3.10
2018-11-23T12:04:30.943Z,-3.00
2018-11-23T12:06:57.703Z,-3.00
2018-11-23T12:09:25.196Z,-3.00
2018-11-23T12:11:51.987Z,-3.00
2018-11-23T12:14:18.751Z,-2.90
2018-11-23T12:16:46.263Z,-2.80
2018-11-23T12:19:13.861Z,-2.90
2018-11-23T12:21:41.408Z,-2.90
2018-11-23T12:24:08.184Z,-2.90
2018-11-23T12:26:35.010Z,-2.80
2018-11-23T12:29:02.520Z,-2.90
2018-11-23T12:31:29.291Z,-2.90
2018-11-23T12:33:56.077Z,-3.00
2018-11-23T12:36:22.866Z,-3.00
2018-11-23T12:38:49.694Z,-3.00
2018-11-23T12:41:16.449Z,-3.00
2018-11-23T12:43:43.232Z,-3.10
2018-11-23T12:46:10.100Z,-3.10
2018-11-23T12:48:36.876Z,-3.10
2018-11-23T12:51:03.721Z,-3.20
2018-11-23T12:53:30.558Z,-3.20
2018-11-23T12:55:58.107Z,-3.00
2018-11-23T12:58:24.860Z,-3.00
2018-11-23T13:00:51.633Z,-3.00
2018-11-23T13:03:19.168Z,-3.00
2018-11-23T13:05:45.993Z,-3.00
2018-11-23T13:08:12.768Z,-3.00
2018-11-23T13:10:40.276Z,-3.10
2018-11-23T13:13:07.110Z,-3.10
2018-11-23T13:15:33.902Z,-3.00
2018-11-23T13:18:01.461Z,-2.90
2018-11-23T13:20:28.310Z,-2.90
2018-11-23T13:22:55.857Z,-3.00
2018-11-23T13:25:22.707Z,-3.00
2018-11-23T13:27:50.295Z,-2.90
2018-11-23T13:30:17.097Z,-2.90
2018-11-23T13:32:43.902Z,-2.90
2018-11-23T13:35:10.789Z,-2.80
2018-11-23T13:37:37.536Z,-2.80
2018-11-23T13:40:05.119Z,-2.70
2018-11-23T13:42:31.968Z,-2.70
2018-11-23T13:44:58.741Z,-2.80
2018-11-23T13:47:25.522Z,-2.80
2018-11-23T13:49:53.072Z,-2.90
2018-11-23T13:52:19.832Z,-2.90
2018-11-23T13:54:47.340Z,-2.80
2018-11-23T13:57:14.149Z,-2.90
2018-11-23T13:59:42.015Z,-2.90
2018-11-23T14:02:08.786Z,-2.80
2018-11-23T14:04:35.577Z,-2.80
2018-11-23T14:07:03.169Z,-2.70
2018-11-23T14:09:30.600Z,-2.70
2018-11-23T14:11:56.818Z,-2.90
2018-11-23T14:14:24.316Z,-2.90
2018-11-23T14:16:51.082Z,-3.00
2018-11-23T14:19:17.912Z,-2.90
2018-11-23T14:21:44.726Z,-2.90
2018-11-23T14:24:11.517Z,-2.80
2018-11-23T14:26:38.334Z,-3.00
2018-11-23T14:29:05.168Z,-3.10
2018-11-23T14:31:31.940Z,-3.20
2018-11-23T14:33:58.768Z,-3.30
2018-11-23T14:36:25.533Z,-3.30
2018-11-23T14:38:52.301Z,-3.40
2018-11-23T14:41:19.891Z,-3.30
2018-11-23T14:43:46.650Z,-3.30
2018-11-23T14:46:13.637Z,-3.10
2018-11-23T14:48:40.430Z,-3.10
2018-11-23T14:51:07.403Z,-3.00
2018-11-23T14:53:34.184Z,-2.90
2018-11-23T14:56:02.378Z,-3.00
2018-11-23T14:58:29.196Z,-3.10
2018-11-23T15:00:55.982Z,-3.10
2018-11-23T15:03:22.781Z,-3.00
2018-11-23T15:05:49.583Z,-3.00
2018-11-23T15:08:16.454Z,-2.90
2018-11-23T15:10:43.260Z,-3.00
2018-11-23T15:13:10.077Z,-3.00
2018-11-23T15:15:36.892Z,-3.00
2018-11-23T15:18:03.716Z,-3.10
2018-11-23T15:20:30.584Z,-3.30
2018-11-23T15:22:58.214Z,-3.40
2018-11-23T15:25:24.981Z,-3.40
2018-11-23T15:27:51.833Z,-3.40
2018-11-23T15:30:18.609Z,-3.50
2018-11-23T15:32:45.477Z,-3.40
2018-11-23T15:35:12.280Z,-3.50
2018-11-23T15:37:39.861Z,-3.50
2018-11-23T15:40:06.741Z,-3.50
2018-11-23T15:42:34.260Z,-3.40
2018-11-23T15:45:01.036Z,-3.30
2018-11-23T15:47:28.592Z,-3.30
2018-11-23T15:49:55.356Z,-3.40
2018-11-23T15:52:23.938Z,-3.50
2018-11-23T15:54:50.877Z,-3.50
2018-11-23T15:57:17.677Z,-3.60
2018-11-23T15:59:48.316Z,-3.60
2018-11-23T16:02:15.161Z,-3.60
2018-11-23T16:04:41.985Z,-3.70
2018-11-23T16:07:08.777Z,-3.80
2018-11-23T16:09:36.394Z,-4.00
2018-11-23T16:12:03.249Z,-4.00
2018-11-23T16:14:30.081Z,-3.90
2018-11-23T16:16:56.997Z,-4.00
2018-11-23T16:19:23.770Z,-3.90
2018-11-23T16:21:50.545Z,-4.10
2018-11-23T16:24:18.061Z,-4.00
2018-11-23T16:26:45.308Z,-4.00
2018-11-23T16:29:12.084Z,-3.90
2018-11-23T16:31:40.108Z,-3.90
2018-11-23T16:34:06.871Z,-4.00
2018-11-23T16:36:33.673Z,-4.00
2018-11-23T16:39:04.496Z,-4.00
2018-11-23T16:41:31.358Z,-4.10
2018-11-23T16:43:58.113Z,-4.10
2018-11-23T16:46:24.890Z,-4.10
2018-11-23T16:48:51.647Z,-4.10
2018-11-23T16:51:19.239Z,-4.00
2018-11-23T16:53:46.027Z,-4.00
2018-11-23T16:56:12.807Z,-4.00
2018-11-23T16:58:40.392Z,-3.90
2018-11-23T17:01:07.076Z,-3.90
2018-11-23T17:03:34.066Z,-3.80
2018-11-23T17:06:00.862Z,-4.00
2018-11-23T17:08:28.907Z,-4.30
2018-11-23T17:11:11.130Z,-4.30
2018-11-23T17:13:37.914Z,-4.20
2018-11-23T17:16:04.657Z,-4.30
2018-11-23T17:18:31.802Z,-4.20
2018-11-23T17:20:59.334Z,-4.30
2018-11-23T17:23:26.592Z,-4.60
2018-11-23T17:25:53.761Z,-4.60
2018-11-23T17:28:20.643Z,-4.60
2018-11-23T17:30:47.833Z,-4.70
2018-11-23T17:33:14.712Z,-4.70
2018-11-23T17:35:42.382Z,-4.60
2018-11-23T17:38:09.200Z,-4.70
2018-11-23T17:40:35.926Z,-4.60
2018-11-23T17:43:03.960Z,-4.70
2018-11-23T17:45:31.315Z,-4.70
2018-11-23T17:48:13.682Z,-4.70
2018-11-23T17:50:40.592Z,-4.70
2018-11-23T17:53:08.504Z,-4.80
2018-11-23T17:55:35.232Z,-4.70
2018-11-23T17:58:02.469Z,-4.80
2018-11-23T18:00:30.063Z,-4.80
2018-11-23T18:02:57.355Z,-4.90
2018-11-23T18:05:24.422Z,-4.80
2018-11-23T18:07:51.425Z,-4.90
2018-11-23T18:10:18.227Z,-4.80
2018-11-23T18:12:45.011Z,-4.80
2018-11-23T18:15:11.942Z,-4.90
2018-11-23T18:17:39.523Z,-4.80
2018-11-23T18:20:07.526Z,-4.80
2018-11-23T18:22:34.265Z,-4.80
2018-11-23T18:25:01.082Z,-4.70
2018-11-23T18:27:27.976Z,-4.70
2018-11-23T18:29:55.842Z,-4.70
2018-11-23T18:32:22.760Z,-4.70
2018-11-23T18:34:49.730Z,-4.90
2018-11-23T18:37:16.638Z,-4.80
2018-11-23T18:39:43.531Z,-4.70
2018-11-23T18:42:11.043Z,-4.70
2018-11-23T18:44:37.734Z,-4.70
2018-11-23T18:47:04.586Z,-4.70
2018-11-23T18:49:32.335Z,-4.90
2018-11-23T18:51:59.007Z,-5.00
2018-11-23T18:54:25.705Z,-4.90
2018-11-23T18:56:52.586Z,-4.90
2018-11-23T18:59:19.221Z,-4.90
2018-11-23T19:01:45.942Z,-4.70
2018-11-23T19:04:12.643Z,-4.80
2018-11-23T19:06:39.369Z,-4.80
2018-11-23T19:09:06.211Z,-4.70
2018-11-23T19:11:33.810Z,-4.70
2018-11-23T19:14:01.607Z,-4.70
2018-11-23T19:16:28.291Z,-4.70
2018-11-23T19:18:57.116Z,-4.60
2018-11-23T19:21:23.859Z,-4.80
2018-11-23T19:23:51.722Z,-4.80
2018-11-23T19:26:18.889Z,-4.90
2018-11-23T19:28:45.711Z,-5.00
2018-11-23T19:31:12.780Z,-4.80
2018-11-23T19:33:39.640Z,-4.90
2018-11-23T19:36:07.985Z,-4.80
2018-11-23T19:38:35.139Z,-4.80
2018-11-23T19:41:02.023Z,-4.80
2018-11-23T19:43:28.719Z,-4.80
2018-11-23T19:45:55.558Z,-4.60
2018-11-23T19:48:23.019Z,-4.70
2018-11-23T19:50:49.910Z,-4.70
2018-11-23T19:53:16.601Z,-4.80
2018-11-23T19:55:44.184Z,-4.80
2018-11-23T19:58:10.974Z,-4.80
2018-11-23T20:00:38.508Z,-5.00
2018-11-23T20:03:05.994Z,-4.90
2018-11-23T20:05:33.682Z,-4.80
2018-11-23T20:08:00.752Z,-4.80
2018-11-23T20:10:28.491Z,-4.90
2018-11-23T20:12:55.302Z,-4.90
2018-11-23T20:15:22.757Z,-4.90
2018-11-23T20:17:49.682Z,-4.90
2018-11-23T20:20:16.416Z,-4.70
2018-11-23T20:22:43.122Z,-4.70
2018-11-23T20:25:09.953Z,-4.80
2018-11-23T20:27:36.803Z,-4.80
2018-11-23T20:30:11.114Z,-4.60
2018-11-23T20:32:40.049Z,-4.60
2018-11-23T20:35:06.789Z,-4.70
2018-11-23T20:37:33.633Z,-5.00
2018-11-23T20:40:01.114Z,-4.80
2018-11-23T20:42:27.775Z,-4.80
2018-11-23T20:44:54.767Z,-4.80
2018-11-23T20:47:21.599Z,-4.80
2018-11-23T20:49:48.583Z,-4.80
2018-11-23T20:52:16.054Z,-4.90
2018-11-23T20:54:44.682Z,-4.90
2018-11-23T20:57:11.310Z,-4.90
2018-11-23T20:59:38.879Z,-4.90
2018-11-23T21:02:05.072Z,-4.80
2018-11-23T21:04:31.914Z,-4.80
2018-11-23T21:06:59.862Z,-4.80
2018-11-23T21:09:31.065Z,-4.80
2018-11-23T21:11:54.334Z,-4.60
2018-11-23T21:14:21.277Z,-4.60
2018-11-23T21:16:47.963Z,-4.60
2018-11-23T21:19:15.405Z,-4.40
2018-11-23T21:21:42.971Z,-4.50
2018-11-23T21:24:09.887Z,-4.50
2018-11-23T21:26:36.552Z,-4.60
2018-11-23T21:29:03.390Z,-4.60
2018-11-23T21:31:30.102Z,-4.60
2018-11-23T21:33:56.767Z,-4.50
2018-11-23T21:36:23.520Z,-4.40
2018-11-23T21:38:50.154Z,-4.50
2018-11-23T21:41:16.830Z,-4.50
2018-11-23T21:43:43.570Z,-4.60
2018-11-23T21:46:10.213Z,-4.60
2018-11-23T21:48:36.890Z,-4.50
2018-11-23T21:51:03.675Z,-4.60
2018-11-23T21:53:31.135Z,-4.70
2018-11-23T21:55:57.798Z,-4.60
2018-11-23T21:58:24.518Z,-4.60
2018-11-23T22:00:51.159Z,-4.60
2018-11-23T22:03:17.843Z,-4.60
2018-11-23T22:05:44.578Z,-4.50
2018-11-23T22:08:11.357Z,-4.60
2018-11-23T22:10:38.749Z,-4.60
2018-11-23T22:13:05.587Z,-4.60
2018-11-23T22:15:32.320Z,-4.70
2018-11-23T22:17:59.039Z,-4.60
2018-11-23T22:20:26.978Z,-4.60
2018-11-23T22:22:54.432Z,-4.50
2018-11-23T22:25:21.183Z,-4.50
2018-11-23T22:27:47.946Z,-4.60
2018-11-23T22:30:15.405Z,-4.70
2018-11-23T22:32:42.170Z,-4.70
2018-11-23T22:35:08.908Z,-4.60
2018-11-23T22:37:35.548Z,-4.50
2018-11-23T22:40:02.287Z,-4.60
2018-11-23T22:42:29.011Z,-4.50
2018-11-23T22:44:55.693Z,-4.50
2018-11-23T22:47:22.404Z,-4.40
2018-11-23T22:49:49.153Z,-4.50
2018-11-23T22:52:15.874Z,-4.50
2018-11-23T22:54:42.538Z,-4.50
2018-11-23T22:57:11.834Z,-4.50
2018-11-23T22:59:35.960Z,-4.60
2018-11-23T23:02:03.609Z,-4.50
2018-11-23T23:04:30.894Z,-4.60
2018-11-23T23:06:58.302Z,-4.50
2018-11-23T23:09:25.006Z,-4.50
2018-11-23T23:11:51.736Z,-4.50
2018-11-23T23:14:19.127Z,-4.60
2018-11-23T23:16:45.775Z,-4.60
2018-11-23T23:19:12.441Z,-4.70
2018-11-23T23:21:39.119Z,-4.70
2018-11-23T23:24:11.602Z,-4.70
2018-11-23T23:26:34.060Z,-4.50
2018-11-23T23:29:00.744Z,-4.50
2018-11-23T23:31:28.213Z,-4.50
2018-11-23T23:33:54.881Z,-4.50
2018-11-23T23:36:21.533Z,-4.50
2018-11-23T23:38:48.253Z,-4.60
2018-11-23T23:41:14.994Z,-4.60
2018-11-23T23:43:41.843Z,-4.60
2018-11-23T23:46:08.544Z,-4.50
2018-11-23T23:48:35.934Z,-4.60
2018-11-23T23:51:02.650Z,-4.60
2018-11-23T23:53:30.117Z,-4.50
2018-11-23T23:55:57.489Z,-4.60
2018-11-23T23:58:24.163Z,-4.60
